Time;durP1;ratioP1;P1;durP2;ratioP2;P2;SDS_P1;SDS_P2;PMS_P1;PMS_P2;Temp;Humidity;BMP_temperature;BMP_pressure;BME280_temperature;BME280_humidity;BME280_pressure;Samples;Min_cycle;Max_cycle;Signal;HPM_P1;HPM_P2
2021/01/20 00:01:27;;;;;;;146.38;53.03;;;;;;;-7.63;86.28;95748.28;5057152;28;20043;-73
2021/01/20 00:03:53;;;;;;;118.97;45.80;;;;;;;-7.57;85.88;95742.81;5042980;28;20042;-73
2021/01/20 00:06:20;;;;;;;98.15;37.63;;;;;;;-7.53;85.01;95749.28;4984945;28;20046;-74
2021/01/20 00:08:46;;;;;;;88.38;32.65;;;;;;;-7.58;85.32;95746.28;5058144;28;20055;-75
2021/01/20 00:11:12;;;;;;;80.97;31.83;;;;;;;-7.75;86.23;95743.97;5058297;28;20075;-73
2021/01/20 00:13:40;;;;;;;85.22;31.73;;;;;;;-7.70;85.29;95736.91;5044372;28;20427;-73
2021/01/20 00:16:06;;;;;;;76.20;31.25;;;;;;;-7.95;87.73;95738.44;4984924;28;20046;-74
2021/01/20 00:18:33;;;;;;;71.72;29.98;;;;;;;-7.86;86.97;95743.84;5023736;28;20044;-73
2021/01/20 00:20:59;;;;;;;73.75;31.15;;;;;;;-7.84;86.36;95735.25;5063680;28;20041;-74
2021/01/20 00:23:26;;;;;;;87.07;32.65;;;;;;;-7.79;86.14;95732.44;5001532;28;20045;-73
2021/01/20 00:25:52;;;;;;;77.18;30.85;;;;;;;-7.71;85.43;95730.22;5006985;28;20140;-73
2021/01/20 00:28:18;;;;;;;72.38;29.00;;;;;;;-7.60;85.12;95743.00;5005284;28;20049;-73
2021/01/20 00:30:45;;;;;;;73.13;26.77;;;;;;;-7.61;84.17;95751.53;5064239;28;20041;-74
2021/01/20 00:33:12;;;;;;;59.20;26.83;;;;;;;-7.58;83.43;95751.34;5060630;28;20032;-73
2021/01/20 00:35:39;;;;;;;75.70;29.10;;;;;;;-7.60;83.23;95753.13;5000792;28;21496;-75
2021/01/20 00:38:05;;;;;;;61.70;25.88;;;;;;;-7.59;83.29;95743.84;5060399;28;23156;-74
2021/01/20 00:40:32;;;;;;;69.78;26.42;;;;;;;-7.82;83.43;95712.41;5051550;28;20075;-74
2021/01/20 00:42:58;;;;;;;73.18;26.85;;;;;;;-7.57;83.30;95737.75;4999396;28;22029;-74
2021/01/20 00:45:24;;;;;;;67.55;25.35;;;;;;;-7.51;83.45;95744.97;5012504;28;20044;-74
2021/01/20 00:47:52;;;;;;;78.47;30.73;;;;;;;-7.55;83.13;95725.81;5034466;28;20160;-72
2021/01/20 00:50:19;;;;;;;72.75;29.60;;;;;;;-7.47;82.61;95744.75;4966789;28;20054;-72
2021/01/20 00:52:47;;;;;;;67.28;26.38;;;;;;;-7.63;84.13;95743.22;5025296;28;20034;-73
2021/01/20 00:55:14;;;;;;;71.07;29.73;;;;;;;-7.59;84.24;95739.56;5019224;28;20098;-74
2021/01/20 00:57:44;;;;;;;68.78;28.33;;;;;;;-7.61;83.46;95735.53;5011892;28;20098;-73
2021/01/20 01:00:12;;;;;;;70.55;28.90;;;;;;;-7.58;83.19;95736.16;5024982;28;20507;-73
2021/01/20 01:02:44;;;;;;;64.45;24.38;;;;;;;-7.74;82.88;95740.53;4983910;28;20487;-73
2021/01/20 01:05:13;;;;;;;64.22;24.73;;;;;;;-7.71;83.06;95737.81;5028943;28;20057;-73
2021/01/20 01:07:41;;;;;;;66.22;25.13;;;;;;;-7.79;83.28;95747.63;5038366;28;20135;-73
2021/01/20 01:10:08;;;;;;;66.82;27.42;;;;;;;-7.72;83.11;95733.69;4978008;28;20108;-73
2021/01/20 01:13:07;;;;;;;77.30;26.48;;;;;;;-7.67;82.55;95746.81;5015410;28;22252;-73
2021/01/20 01:15:38;;;;;;;80.68;32.53;;;;;;;-7.63;81.40;95753.34;5060483;28;20044;-73
2021/01/20 01:18:05;;;;;;;104.70;47.25;;;;;;;-7.72;81.16;95738.75;5035370;28;20425;-74
2021/01/20 01:20:35;;;;;;;81.28;32.80;;;;;;;-7.76;80.66;95752.47;5000072;28;20035;-73
2021/01/20 01:23:02;;;;;;;72.00;31.10;;;;;;;-7.85;80.28;95737.88;4985837;28;20112;-73
2021/01/20 01:25:29;;;;;;;62.13;24.83;;;;;;;-7.76;80.09;95755.00;5044279;28;20074;-74
2021/01/20 01:27:58;;;;;;;66.30;24.33;;;;;;;-8.24;83.76;95741.97;5060917;28;20052;-73
2021/01/20 01:30:25;;;;;;;53.58;24.42;;;;;;;-8.19;83.06;95735.72;5054143;28;20046;-73
2021/01/20 01:32:52;;;;;;;59.65;25.67;;;;;;;-8.33;83.65;95736.53;5027913;28;20097;-73
2021/01/20 01:35:28;;;;;;;57.72;22.90;;;;;;;-8.37;83.20;95732.59;5066715;28;20067;-73
2021/01/20 01:38:02;;;;;;;58.38;24.27;;;;;;;-8.24;83.13;95726.81;5020891;28;20065;-73
2021/01/20 01:40:38;;;;;;;78.47;30.08;;;;;;;-8.22;83.03;95735.09;5003093;28;20038;-73
2021/01/20 01:43:17;;;;;;;62.35;25.83;;;;;;;-8.38;84.72;95713.28;5008544;28;20052;-73
2021/01/20 01:45:56;;;;;;;55.05;23.90;;;;;;;-8.19;84.18;95724.78;5060283;28;20048;-73
2021/01/20 01:48:23;;;;;;;62.55;22.67;;;;;;;-8.17;83.54;95723.00;5066452;28;20044;-73
2021/01/20 01:50:50;;;;;;;63.45;24.98;;;;;;;-8.24;83.26;95712.44;5012468;28;20095;-73
2021/01/20 01:53:16;;;;;;;64.95;25.17;;;;;;;-8.14;83.20;95727.84;5010297;28;20047;-73
2021/01/20 01:56:00;;;;;;;57.53;24.97;;;;;;;-8.20;82.82;95723.16;5014938;28;20053;-73
2021/01/20 01:58:44;;;;;;;56.35;24.17;;;;;;;-8.29;83.65;95719.47;5006102;28;21108;-73
2021/01/20 02:01:17;;;;;;;42.17;18.63;;;;;;;-8.17;83.74;95730.56;5066092;28;20422;-73
2021/01/20 02:03:51;;;;;;;62.97;25.20;;;;;;;-8.15;83.68;95736.34;4969250;28;20112;-74
2021/01/20 02:06:22;;;;;;;62.63;25.77;;;;;;;-8.17;83.71;95733.09;5054427;28;20094;-73
2021/01/20 02:08:58;;;;;;;62.47;24.38;;;;;;;-8.16;83.55;95734.72;5054745;28;20036;-73
2021/01/20 02:11:27;;;;;;;61.08;24.98;;;;;;;-8.50;85.88;95726.66;5019296;28;20519;-73
2021/01/20 02:14:35;;;;;;;66.18;26.45;;;;;;;-8.43;85.62;95738.03;5039145;28;20042;-74
2021/01/20 02:17:42;;;;;;;60.10;23.33;;;;;;;-8.52;86.61;95733.53;4986570;28;20049;-73
2021/01/20 02:20:31;;;;;;;62.95;23.70;;;;;;;-8.44;86.02;95736.41;4996779;28;20052;-73
2021/01/20 02:23:06;;;;;;;60.47;24.70;;;;;;;-8.57;88.00;95730.47;4984844;28;20103;-73
2021/01/20 02:26:22;;;;;;;58.83;23.70;;;;;;;-8.53;87.85;95731.94;5033016;28;20121;-73
2021/01/20 02:29:25;;;;;;;54.70;25.35;;;;;;;-8.69;90.81;95717.66;5067258;28;20524;-73
2021/01/20 02:32:06;;;;;;;57.05;24.30;;;;;;;-8.46;89.84;95728.94;5063935;28;20036;-73
2021/01/20 02:34:34;;;;;;;60.08;25.35;;;;;;;-8.38;88.55;95725.91;5059788;28;20044;-73
2021/01/20 02:37:03;;;;;;;61.88;24.17;;;;;;;-8.38;88.09;95709.94;4985001;28;20042;-73
2021/01/20 02:39:57;;;;;;;58.83;22.67;;;;;;;-8.36;87.02;95703.88;4984763;28;20042;-73
2021/01/20 02:42:44;;;;;;;61.95;21.95;;;;;;;-8.28;86.73;95718.59;4984725;28;20469;-73
2021/01/20 02:45:17;;;;;;;47.05;20.50;;;;;;;-8.35;85.67;95702.97;5040135;28;20037;-72
2021/01/20 02:47:47;;;;;;;58.00;23.48;;;;;;;-8.21;85.44;95721.53;5060258;28;20040;-72
2021/01/20 02:50:20;;;;;;;43.30;21.60;;;;;;;-8.21;84.72;95724.06;4992777;28;20129;-73
2021/01/20 02:52:53;;;;;;;45.67;20.70;;;;;;;-8.22;84.28;95730.03;5064022;28;20510;-73
2021/01/20 02:55:43;;;;;;;50.05;22.88;;;;;;;-8.33;83.52;95710.47;5042320;28;20053;-73
2021/01/20 02:58:31;;;;;;;58.55;21.13;;;;;;;-8.24;83.30;95721.75;5011339;28;20147;-72
2021/01/20 03:01:19;;;;;;;46.42;22.13;;;;;;;-8.24;83.15;95724.28;5065915;28;20418;-73
2021/01/20 03:03:47;;;;;;;54.67;22.20;;;;;;;-8.38;83.25;95705.69;5039390;28;20107;-73
2021/01/20 03:06:16;;;;;;;52.53;21.15;;;;;;;-8.28;83.25;95721.91;5058719;28;20057;-73
2021/01/20 03:08:43;;;;;;;68.15;33.28;;;;;;;-8.36;83.37;95708.94;5019806;28;20106;-73
2021/01/20 03:11:11;;;;;;;99.57;41.97;;;;;;;-8.36;83.10;95713.97;5066566;28;20429;-73
2021/01/20 03:13:39;;;;;;;50.38;22.50;;;;;;;-8.23;82.78;95715.75;5048320;28;20127;-73
2021/01/20 03:16:06;;;;;;;53.40;21.00;;;;;;;-8.38;83.67;95720.03;5066860;28;20472;-73
2021/01/20 03:18:33;;;;;;;46.80;22.50;;;;;;;-8.38;83.54;95720.84;5038715;28;20046;-73
2021/01/20 03:20:59;;;;;;;52.05;22.73;;;;;;;-8.26;83.25;95730.22;5003335;28;20205;-74
2021/01/20 03:23:26;;;;;;;52.63;24.13;;;;;;;-8.30;83.31;95726.25;5042345;28;20044;-73
2021/01/20 03:25:52;;;;;;;55.70;23.90;;;;;;;-8.29;83.34;95725.34;5064929;28;20729;-73
2021/01/20 03:28:18;;;;;;;58.85;22.42;;;;;;;-8.29;82.94;95715.22;5060723;28;20541;-73
2021/01/20 03:30:45;;;;;;;49.53;21.73;;;;;;;-8.34;82.40;95712.16;5026440;28;20101;-73
2021/01/20 03:33:11;;;;;;;47.03;22.60;;;;;;;-8.39;83.84;95729.34;4986412;28;20043;-73
2021/01/20 03:35:38;;;;;;;55.95;23.48;;;;;;;-8.49;85.71;95730.84;4985649;28;20074;-73
2021/01/20 03:38:04;;;;;;;57.92;24.88;;;;;;;-8.44;85.60;95731.38;5013868;28;20064;-73
2021/01/20 03:40:30;;;;;;;50.22;22.80;;;;;;;-8.43;85.23;95714.50;5061025;28;20402;-73
2021/01/20 03:42:56;;;;;;;56.30;23.15;;;;;;;-8.32;84.33;95723.03;5058334;28;20036;-73
2021/01/20 03:45:23;;;;;;;66.85;24.88;;;;;;;-8.32;84.19;95710.38;5066376;28;20056;-73
2021/01/20 03:47:49;;;;;;;49.97;21.90;;;;;;;-8.40;83.81;95707.50;5066661;28;20143;-73
2021/01/20 03:50:15;;;;;;;62.80;23.35;;;;;;;-8.55;84.68;95708.44;5058342;28;20063;-73
2021/01/20 03:52:41;;;;;;;53.25;21.80;;;;;;;-8.62;84.64;95723.19;5017828;28;20094;-73
2021/01/20 03:55:08;;;;;;;57.25;23.65;;;;;;;-9.08;87.99;95721.63;5001908;28;20046;-73
2021/01/20 03:57:35;;;;;;;67.05;27.90;;;;;;;-9.23;89.85;95722.53;4991686;28;20060;-72
2021/01/20 04:00:01;;;;;;;70.65;26.30;;;;;;;-9.03;89.00;95713.78;5029175;28;20102;-73
2021/01/20 04:02:27;;;;;;;64.72;30.42;;;;;;;-9.09;89.99;95717.50;5019230;28;20396;-73
2021/01/20 04:05:08;;;;;;;80.93;34.33;;;;;;;-9.05;90.25;95731.53;5032876;28;20505;-73
2021/01/20 04:07:35;;;;;;;76.03;34.15;;;;;;;-8.99;90.51;95734.63;5023978;28;20053;-73
2021/01/20 04:10:01;;;;;;;85.60;31.85;;;;;;;-8.88;89.85;95717.13;5052432;28;20543;-72
2021/01/20 04:12:27;;;;;;;80.25;33.78;;;;;;;-8.81;89.19;95731.00;5026383;28;20557;-73
2021/01/20 04:14:55;;;;;;;78.95;35.28;;;;;;;-8.84;89.58;95733.72;4983897;28;20050;-73
2021/01/20 04:17:21;;;;;;;79.00;35.15;;;;;;;-8.81;89.71;95743.66;4983633;28;20145;-74
2021/01/20 04:19:48;;;;;;;78.70;32.45;;;;;;;-8.75;89.75;95738.25;5000439;28;22084;-73
2021/01/20 04:22:14;;;;;;;75.95;33.33;;;;;;;-8.71;89.14;95734.63;4976389;28;20049;-73
2021/01/20 04:24:40;;;;;;;80.85;33.72;;;;;;;-8.59;nan;95753.28;5064908;28;20517;-73
2021/01/20 04:27:07;;;;;;;82.32;32.63;;;;;;;-8.75;89.70;95733.19;4992696;28;20131;-73
2021/01/20 04:29:33;;;;;;;70.15;30.75;;;;;;;-8.47;89.32;95751.75;4984046;28;20045;-72
2021/01/20 04:31:59;;;;;;;64.70;28.92;;;;;;;-8.40;88.81;95747.94;4984680;28;20121;-73
2021/01/20 04:34:26;;;;;;;72.72;30.38;;;;;;;-8.22;88.36;95761.16;5007060;28;20124;-73
2021/01/20 04:36:52;;;;;;;67.20;30.52;;;;;;;-8.19;87.96;95760.16;5065072;28;20056;-73
2021/01/20 04:39:18;;;;;;;74.90;30.42;;;;;;;-8.08;87.62;95775.50;5068146;28;20043;-73
2021/01/20 04:41:45;;;;;;;76.35;31.27;;;;;;;-8.20;87.38;95749.25;5049559;28;20057;-72
2021/01/20 04:44:11;;;;;;;77.45;31.75;;;;;;;-7.93;87.62;95782.13;5040280;28;20043;-73
2021/01/20 04:46:41;;;;;;;73.20;30.85;;;;;;;-7.99;88.04;95769.88;5029468;28;20038;-73
2021/01/20 04:49:14;;;;;;;76.07;33.28;;;;;;;-7.90;88.90;95776.91;5044866;28;20070;-73
2021/01/20 04:51:42;;;;;;;72.07;29.55;;;;;;;-7.73;88.93;95773.31;5041072;28;20416;-73
2021/01/20 04:54:12;;;;;;;75.75;31.80;;;;;;;-7.53;88.68;95772.06;5068890;28;20048;-73
2021/01/20 04:56:39;;;;;;;73.28;31.13;;;;;;;-7.55;88.54;95765.50;5069814;28;20040;-73
2021/01/20 04:59:06;;;;;;;92.68;42.90;;;;;;;-7.42;87.84;95780.72;4996808;28;20043;-72
2021/01/20 05:01:33;;;;;;;87.75;42.28;;;;;;;-7.48;87.28;95760.88;4987742;28;20149;-72
2021/01/20 05:04:03;;;;;;;119.45;52.47;;;;;;;-7.37;86.98;95779.50;4998430;28;20042;-72
2021/01/20 05:06:31;;;;;;;116.85;49.05;;;;;;;-7.33;86.08;95780.13;4998128;28;20103;-72
2021/01/20 05:08:59;;;;;;;114.97;51.83;;;;;;;-7.27;85.79;95784.81;5043222;28;20048;-72
2021/01/20 05:11:40;;;;;;;103.38;47.60;;;;;;;-7.29;85.28;95781.56;4987516;28;20047;-72
2021/01/20 05:14:17;;;;;;;94.97;41.30;;;;;;;-7.22;85.10;95795.47;5008398;28;20482;-71
2021/01/20 05:16:52;;;;;;;112.65;52.00;;;;;;;-7.26;84.59;95796.53;5065186;28;20045;-73
2021/01/20 05:19:50;;;;;;;;;;;;;;;-7.30;84.66;95807.78;5037149;28;20472;-73
2021/01/20 05:22:26;;;;;;;92.70;42.33;;;;;;;-7.62;84.93;95772.66;5008135;28;19921;-74
2021/01/20 05:25:03;;;;;;;78.35;35.03;;;;;;;-7.59;86.46;95800.31;5067805;28;20131;-72
2021/01/20 05:27:31;;;;;;;90.03;41.97;;;;;;;-7.41;86.18;95802.59;5068712;28;20044;-71
2021/01/20 05:29:58;;;;;;;89.95;37.10;;;;;;;-7.76;88.39;95808.13;5067723;28;20444;-71
2021/01/20 05:32:25;;;;;;;90.28;37.00;;;;;;;-7.80;87.84;95787.25;5034487;28;20057;-72
2021/01/20 05:34:58;;;;;;;105.82;42.80;;;;;;;-7.55;87.06;95816.09;4998906;28;20174;-71
2021/01/20 05:37:25;;;;;;;86.20;37.45;;;;;;;-7.59;86.77;95810.41;5010471;28;20073;-72
2021/01/20 05:40:05;;;;;;;104.53;42.42;;;;;;;-7.48;86.84;95816.53;4985357;28;20046;-72
2021/01/20 05:42:53;;;;;;;95.20;41.72;;;;;;;-7.41;86.32;95802.59;5060902;28;20033;-71
2021/01/20 05:45:22;;;;;;;110.60;44.65;;;;;;;-7.42;85.62;95806.81;5033385;28;20045;-71
2021/01/20 05:48:07;;;;;;;120.05;48.70;;;;;;;-7.75;88.41;95815.59;5017702;28;20088;-71
2021/01/20 05:50:54;;;;;;;108.63;48.28;;;;;;;-7.56;87.73;95820.34;4997703;28;20613;-71
2021/01/20 05:53:20;;;;;;;117.43;47.38;;;;;;;-7.45;86.94;95831.50;5063580;28;20040;-72
2021/01/20 05:56:01;;;;;;;118.05;53.47;;;;;;;-7.43;86.64;95814.53;5031454;28;20041;-72
2021/01/20 05:58:45;;;;;;;120.47;51.17;;;;;;;-7.41;86.78;95817.78;5032601;28;20047;-72
2021/01/20 06:01:11;;;;;;;116.10;49.33;;;;;;;-7.33;86.40;95815.56;5020366;28;20048;-72
2021/01/20 06:03:38;;;;;;;163.40;67.85;;;;;;;-7.56;87.77;95825.41;5032820;28;20119;-73
2021/01/20 06:06:06;;;;;;;142.20;62.80;;;;;;;-7.54;87.96;95821.06;5005449;28;20127;-71
2021/01/20 06:08:33;;;;;;;130.95;58.63;;;;;;;-7.34;87.92;95819.00;5016784;28;20064;-73
2021/01/20 06:11:01;;;;;;;139.85;58.38;;;;;;;-7.27;87.31;95815.19;5018063;28;20087;-72
2021/01/20 06:13:28;;;;;;;125.63;55.33;;;;;;;-7.41;88.64;95807.66;5025248;28;20043;-72
2021/01/20 06:16:12;;;;;;;110.00;48.90;;;;;;;-7.25;88.75;95820.97;5025320;28;20034;-72
2021/01/20 06:18:44;;;;;;;102.57;40.92;;;;;;;-7.16;89.31;95811.97;5054187;28;20470;-73
2021/01/20 06:21:14;;;;;;;108.13;42.53;;;;;;;-6.94;88.95;95824.06;5067356;28;20112;-72
2021/01/20 06:23:46;;;;;;;140.73;49.47;;;;;;;-6.95;88.45;95813.13;5065507;28;20048;-72
2021/01/20 06:26:14;;;;;;;126.32;50.08;;;;;;;-6.88;87.84;95811.00;5065313;28;20060;-72
2021/01/20 06:28:50;;;;;;;152.23;56.50;;;;;;;-6.73;87.72;95820.13;5061992;28;20120;-73
2021/01/20 06:31:18;;;;;;;177.30;63.75;;;;;;;-6.87;88.48;95822.75;5011497;28;20044;-72
2021/01/20 06:33:45;;;;;;;174.02;65.45;;;;;;;-6.84;88.96;95812.44;5065863;28;20111;-72
2021/01/20 06:36:36;;;;;;;180.38;63.97;;;;;;;-6.63;88.35;95817.00;5060517;28;20222;-73
2021/01/20 06:39:27;;;;;;;163.65;62.90;;;;;;;-6.74;88.44;95815.97;4985574;28;20076;-72
2021/01/20 06:41:58;;;;;;;186.45;66.78;;;;;;;-6.60;88.45;95819.34;4986301;28;20567;-72
2021/01/20 06:44:25;;;;;;;172.75;63.65;;;;;;;-6.54;88.08;95813.84;4986467;28;20117;-71
2021/01/20 06:46:57;;;;;;;167.80;67.78;;;;;;;-6.41;87.50;95834.97;4986286;28;20040;-71
2021/01/20 06:49:33;;;;;;;173.60;64.03;;;;;;;-6.41;87.26;95834.97;4985784;28;20521;-72
2021/01/20 06:52:11;;;;;;;184.45;70.97;;;;;;;-6.27;86.62;95835.75;5002683;28;20048;-71
2021/01/20 06:54:46;;;;;;;188.88;68.68;;;;;;;-6.30;86.15;95820.72;5066838;28;20111;-72
2021/01/20 06:57:33;;;;;;;174.43;67.18;;;;;;;-6.14;86.41;95834.00;5064809;28;20056;-73
2021/01/20 07:00:11;;;;;;;180.75;62.80;;;;;;;-6.25;87.51;95844.88;5065697;28;20725;-73
2021/01/20 07:02:57;;;;;;;151.43;59.58;;;;;;;-6.12;87.13;95842.34;5064272;28;20040;-72
2021/01/20 07:05:34;;;;;;;158.88;60.85;;;;;;;-6.08;86.74;95846.28;5001377;28;20082;-72
2021/01/20 07:08:01;;;;;;;157.18;59.88;;;;;;;-6.08;87.03;95845.47;5049311;28;20447;-72
2021/01/20 07:10:30;;;;;;;154.50;66.60;;;;;;;-6.23;89.56;95844.75;5050879;28;20072;-73
2021/01/20 07:13:09;;;;;;;145.32;59.72;;;;;;;-5.97;89.19;95848.91;5063926;28;20044;-73
2021/01/20 07:15:40;;;;;;;136.32;59.55;;;;;;;-5.84;89.98;95859.00;5025268;28;20121;-72
2021/01/20 07:18:08;;;;;;;135.30;61.15;;;;;;;-5.70;90.90;95860.59;4983583;28;20408;-73
2021/01/20 07:20:34;;;;;;;153.15;63.70;;;;;;;-5.52;90.22;95857.72;4983528;28;20118;-73
2021/01/20 07:23:01;;;;;;;104.80;46.97;;;;;;;-5.34;89.96;95874.19;4987697;28;20394;-73
2021/01/20 07:25:27;;;;;;;100.03;41.95;;;;;;;-5.18;89.35;95877.28;5064263;28;20045;-73
2021/01/20 07:27:53;;;;;;;112.88;52.70;;;;;;;-5.06;88.78;95870.53;5047596;28;20502;-72
2021/01/20 07:30:21;;;;;;;97.82;43.08;;;;;;;-4.89;88.35;95874.41;4986012;28;20495;-73
2021/01/20 07:32:47;;;;;;;77.53;31.20;;;;;;;-4.77;87.91;95875.25;4983372;28;20037;-73
2021/01/20 07:35:25;;;;;;;68.32;30.88;;;;;;;-4.57;87.29;95866.19;5009339;28;20052;-73
2021/01/20 07:38:04;;;;;;;80.03;33.83;;;;;;;-4.42;86.74;95859.97;4986125;28;21079;-73
2021/01/20 07:40:39;;;;;;;61.50;26.40;;;;;;;-4.16;86.46;95875.03;5005263;28;20043;-73
2021/01/20 07:43:06;;;;;;;59.47;29.75;;;;;;;-4.07;86.33;95874.34;5038389;28;20149;-73
2021/01/20 07:45:39;;;;;;;93.18;45.92;;;;;;;-3.84;84.66;95881.97;4985427;28;20117;-73
2021/01/20 07:48:07;;;;;;;57.58;25.48;;;;;;;-3.81;82.12;95871.56;4985924;28;20038;-73
2021/01/20 07:50:41;;;;;;;150.15;53.20;;;;;;;-3.76;80.36;95891.56;4983769;28;20475;-73
2021/01/20 07:53:11;;;;;;;55.78;25.95;;;;;;;-3.81;80.27;95880.94;5038877;28;20129;-72
2021/01/20 07:55:37;;;;;;;43.85;20.70;;;;;;;-3.70;81.56;95902.09;5058924;28;20055;-74
2021/01/20 07:58:04;;;;;;;149.45;57.25;;;;;;;-3.63;81.44;95876.19;5057388;28;20502;-74
2021/01/20 08:00:43;;;;;;;81.20;37.92;;;;;;;-3.49;79.90;95888.69;5065963;28;20048;-74
2021/01/20 08:03:10;;;;;;;91.60;36.13;;;;;;;-3.35;79.39;95896.06;5065500;28;20393;-73
2021/01/20 08:05:37;;;;;;;92.50;39.38;;;;;;;-3.26;80.19;95889.44;5063913;28;20098;-74
2021/01/20 08:08:08;;;;;;;98.35;45.17;;;;;;;-3.21;80.04;95902.63;5048892;28;20130;-74
2021/01/20 08:10:36;;;;;;;90.10;40.80;;;;;;;-3.08;80.24;95892.28;5033316;28;20121;-74
2021/01/20 08:13:05;;;;;;;52.88;24.48;;;;;;;-2.95;80.71;95908.25;5064395;28;20421;-74
2021/01/20 08:15:32;;;;;;;89.60;37.20;;;;;;;-2.75;78.85;95895.66;5037719;28;20034;-74
2021/01/20 08:18:00;;;;;;;94.47;42.15;;;;;;;-2.78;80.17;95885.69;5020216;28;20107;-73
2021/01/20 08:20:32;;;;;;;53.90;25.92;;;;;;;-2.63;78.90;95897.25;4982327;28;20071;-74
2021/01/20 08:22:59;;;;;;;52.50;22.08;;;;;;;-2.38;80.67;95879.94;5002870;28;20056;-74
2021/01/20 08:25:25;;;;;;;102.68;54.03;;;;;;;-2.31;77.39;95896.34;4982355;28;20569;-74
2021/01/20 08:27:52;;;;;;;55.25;27.60;;;;;;;-2.38;77.22;95890.13;4983869;28;20039;-73
2021/01/20 08:30:32;;;;;;;45.72;20.48;;;;;;;-2.15;75.87;95891.63;4999584;28;20049;-73
2021/01/20 08:33:00;;;;;;;160.30;49.28;;;;;;;-2.01;75.03;95872.63;5016221;28;20062;-75
2021/01/20 08:35:37;;;;;;;56.67;26.63;;;;;;;-1.83;75.28;95875.38;5001171;28;20395;-74
2021/01/20 08:38:05;;;;;;;43.47;21.73;;;;;;;-1.64;74.91;95890.00;5010598;28;20502;-74
2021/01/20 08:40:32;;;;;;;70.75;27.33;;;;;;;-1.55;74.34;95883.28;5065213;28;20116;-74
2021/01/20 08:42:59;;;;;;;65.82;27.17;;;;;;;-1.30;74.21;95886.31;5006761;28;20486;-75
2021/01/20 08:45:40;;;;;;;82.57;40.65;;;;;;;-1.21;74.00;95881.19;4984596;28;20143;-74
2021/01/20 08:48:08;;;;;;;62.05;28.95;;;;;;;-0.95;73.28;95885.81;4985311;28;20407;-75
2021/01/20 08:50:46;;;;;;;48.72;23.75;;;;;;;-0.82;72.63;95876.13;5028055;28;20529;-74
2021/01/20 08:53:25;;;;;;;53.50;23.63;;;;;;;-0.63;73.33;95880.44;5029812;28;20040;-74
2021/01/20 08:55:56;;;;;;;53.95;25.65;;;;;;;-0.64;72.15;95883.94;5063918;28;20140;-74
2021/01/20 08:58:24;;;;;;;41.65;19.77;;;;;;;-0.68;71.58;95885.16;5065597;28;20105;-74
2021/01/20 09:00:58;;;;;;;37.22;17.73;;;;;;;-0.40;72.42;95880.16;4995339;28;20128;-75
2021/01/20 09:03:25;;;;;;;43.60;21.83;;;;;;;-0.20;71.17;95891.16;4985014;28;20117;-72
2021/01/20 09:05:53;;;;;;;36.30;17.88;;;;;;;0.21;70.53;95888.38;4984848;28;20515;-74
2021/01/20 09:08:21;;;;;;;31.08;15.68;;;;;;;0.33;68.92;95892.38;5033356;28;20044;-72
2021/01/20 09:10:48;;;;;;;31.80;14.82;;;;;;;0.69;68.36;95877.91;5022927;28;20046;-72
2021/01/20 09:13:17;;;;;;;30.27;15.55;;;;;;;0.98;64.00;95881.25;5038470;28;20415;-72
2021/01/20 09:15:45;;;;;;;31.80;16.67;;;;;;;0.98;61.71;95892.31;4983165;28;20042;-72
2021/01/20 09:18:12;;;;;;;35.22;17.63;;;;;;;1.08;61.77;95861.44;4995560;28;20044;-72
2021/01/20 09:20:39;;;;;;;45.50;20.88;;;;;;;1.13;61.46;95859.25;4999082;28;20042;-72
2021/01/20 09:23:06;;;;;;;33.47;18.45;;;;;;;1.00;62.05;95874.19;5006375;28;20029;-71
2021/01/20 09:25:33;;;;;;;52.88;36.85;;;;;;;0.87;62.24;95870.22;5004127;28;20034;-72
2021/01/20 09:28:00;;;;;;;29.48;13.45;;;;;;;1.02;61.86;95864.59;4985965;28;20048;-72
2021/01/20 09:30:27;;;;;;;37.95;22.38;;;;;;;1.17;62.79;95855.44;4987314;28;20039;-72
2021/01/20 09:32:54;;;;;;;28.13;14.70;;;;;;;1.28;61.53;95852.66;4972850;28;20518;-72
2021/01/20 09:35:21;;;;;;;28.25;15.15;;;;;;;1.47;60.69;95856.00;4984821;28;20163;-71
2021/01/20 09:37:49;;;;;;;34.88;15.02;;;;;;;1.36;62.17;95851.09;4983165;28;20073;-72
2021/01/20 09:40:17;;;;;;;31.48;17.25;;;;;;;1.31;61.95;95847.22;5047980;28;20039;-72
2021/01/20 09:42:47;;;;;;;33.00;17.02;;;;;;;1.57;62.13;95835.34;5062675;28;20043;-72
2021/01/20 09:45:16;;;;;;;31.25;14.70;;;;;;;1.63;60.77;95840.72;5067502;28;20040;-72
2021/01/20 09:47:45;;;;;;;30.67;15.32;;;;;;;1.97;59.36;95831.44;5066863;28;20044;-73
2021/01/20 09:50:14;;;;;;;46.03;16.10;;;;;;;2.43;57.82;95827.63;5033475;28;20050;-73
2021/01/20 09:52:43;;;;;;;26.55;13.40;;;;;;;2.18;56.09;95823.34;5056599;28;20051;-73
2021/01/20 09:55:11;;;;;;;35.80;18.98;;;;;;;1.97;58.41;95827.09;4984789;28;20041;-73
2021/01/20 09:57:37;;;;;;;27.20;14.93;;;;;;;1.94;56.52;95811.19;5011676;28;20400;-72
2021/01/20 10:00:05;;;;;;;33.05;15.27;;;;;;;2.51;55.68;95806.28;5021295;28;20128;-71
2021/01/20 10:02:37;;;;;;;36.78;17.48;;;;;;;2.73;54.95;95812.59;5008283;28;20053;-70
2021/01/20 10:05:11;;;;;;;31.67;15.38;;;;;;;3.18;52.91;95819.09;5062056;28;20071;-70
2021/01/20 10:07:38;;;;;;;35.00;15.73;;;;;;;3.22;52.40;95812.69;5067893;28;20032;-70
2021/01/20 10:10:06;;;;;;;49.13;19.58;;;;;;;3.32;52.37;95802.19;5038561;28;20528;-70
2021/01/20 10:12:33;;;;;;;35.97;18.17;;;;;;;3.73;52.14;95803.94;5068245;28;20466;-70
2021/01/20 10:14:59;;;;;;;33.97;17.48;;;;;;;3.79;51.59;95792.97;4994798;28;20053;-70
2021/01/20 10:17:25;;;;;;;36.28;15.90;;;;;;;3.79;49.96;95791.19;5042710;28;20102;-71
2021/01/20 10:19:52;;;;;;;29.65;15.65;;;;;;;4.15;49.87;95792.53;5027522;28;20037;-70
2021/01/20 10:22:19;;;;;;;29.35;14.15;;;;;;;4.56;49.99;95790.59;5027136;28;20047;-70
2021/01/20 10:24:46;;;;;;;26.30;13.98;;;;;;;4.15;49.66;95785.59;5009967;28;20500;-69
2021/01/20 10:27:12;;;;;;;29.92;16.92;;;;;;;4.72;49.56;95789.69;5059177;28;20037;-70
2021/01/20 10:29:38;;;;;;;41.45;17.58;;;;;;;5.74;47.50;95773.88;5022409;28;20115;-70
2021/01/20 10:32:05;;;;;;;33.55;14.82;;;;;;;5.89;45.29;95771.28;5033369;28;20113;-70
2021/01/20 10:34:32;;;;;;;30.13;16.20;;;;;;;6.30;44.35;95778.63;5061251;28;20064;-70
2021/01/20 10:36:58;;;;;;;33.20;15.32;;;;;;;6.76;42.96;95771.56;5013232;28;20459;-70
2021/01/20 10:39:24;;;;;;;28.30;15.02;;;;;;;6.90;42.18;95765.53;4985848;28;20549;-70
2021/01/20 10:41:54;;;;;;;28.08;14.52;;;;;;;7.36;41.00;95765.09;5006800;28;20078;-69
2021/01/20 10:44:20;;;;;;;26.67;14.77;;;;;;;7.59;40.83;95761.50;5027024;28;20094;-70
2021/01/20 10:46:48;;;;;;;25.40;13.95;;;;;;;7.99;40.01;95767.72;5015645;28;20045;-70
2021/01/20 10:49:14;;;;;;;33.70;15.20;;;;;;;8.44;39.10;95749.19;5060839;28;20410;-69
2021/01/20 10:51:41;;;;;;;29.17;14.10;;;;;;;8.79;38.24;95756.88;5037108;28;20087;-69
2021/01/20 10:54:07;;;;;;;32.63;15.15;;;;;;;8.88;37.12;95750.50;5011080;28;20111;-70
2021/01/20 10:56:34;;;;;;;30.40;14.68;;;;;;;8.68;37.99;95760.03;5020664;28;20427;-70
2021/01/20 10:59:01;;;;;;;27.05;14.52;;;;;;;8.04;38.98;95760.16;5031826;28;20040;-70
2021/01/20 11:01:29;;;;;;;26.67;14.07;;;;;;;7.67;39.95;95758.78;5049756;28;20047;-69
2021/01/20 11:03:56;;;;;;;24.98;13.02;;;;;;;7.68;39.95;95755.16;5007175;28;20038;-69
2021/01/20 11:06:24;;;;;;;27.55;13.93;;;;;;;7.47;40.02;95748.25;5018043;28;20032;-69
2021/01/20 11:08:50;;;;;;;25.30;13.48;;;;;;;7.91;39.67;95743.75;5015855;28;20050;-69
2021/01/20 11:11:18;;;;;;;28.67;15.05;;;;;;;7.60;39.97;95743.16;4996688;28;20507;-69
2021/01/20 11:13:45;;;;;;;32.75;16.08;;;;;;;6.89;42.21;95730.22;5027172;28;20042;-69
2021/01/20 11:16:12;;;;;;;32.10;14.32;;;;;;;7.57;41.06;95737.56;5017279;28;20045;-69
2021/01/20 11:18:39;;;;;;;31.65;16.05;;;;;;;7.95;39.87;95724.22;5023184;28;20385;-69
2021/01/20 11:21:06;;;;;;;26.77;14.23;;;;;;;8.23;39.36;95722.34;4989176;28;20046;-69
2021/01/20 11:23:35;;;;;;;27.30;14.57;;;;;;;8.82;38.05;95721.91;5043493;28;20120;-69
2021/01/20 11:26:08;;;;;;;36.25;17.27;;;;;;;8.56;39.02;95732.06;5025810;28;20038;-69
2021/01/20 11:28:35;;;;;;;28.40;11.75;;;;;;;9.20;37.59;95711.78;5019075;28;20046;-69
2021/01/20 11:31:02;;;;;;;27.58;14.00;;;;;;;9.24;37.24;95727.72;5041176;28;20054;-69
2021/01/20 11:33:36;;;;;;;20.67;11.68;;;;;;;9.08;37.20;95718.56;5021285;28;20047;-69